Whitesburg, Georgia
Current Conditions -  °F | °C
As of 1:35 PM on Monday 22 Dec 2014 (Local Time) from KCCO Reporting Station
Haze Haze  
Wind Chill: 43°   Ceiling: 200
Heat Index: 47°   Visibility: 4mi
Dew Point: 47°   Wind: 9mph
Humidity: 100%   Direction: 120°ESE
Pressure: 29.92"   Gusts: NA
Location:  33.49°N, 84.91°W
Report Text: KCCO 221835Z AUTO 12008KT 4SM BR OVC002 08/08 A2992 RMK AO2 LTG DSNT SW T00830083
Loading
Personal Weather Stations






























Interactive Weather Map New forecast layout! Learn more

10-Day Weather Forecast

Advertisements
Track Severe Weather on mobile